Miquan, China
Current Conditions -  °F | °C
As of 9:30 PM on Thursday 30 Oct 2014 (Local Time) from ZWWW Reporting Station
Clear Clear  
Wind Chill: 36°   Ceiling: Unl
Heat Index: 36°   Visibility: 5mi
Dew Point: 23°   Wind: 2mph
Humidity: 60%   Direction: 330°NNW
Pressure: 30.48"   Gusts: NA
Location:  43.97°N, 87.7°E
Report Text: ZWWW 301330Z 33001MPS 8000 NSC 02/M05 Q1032 NOSIG
Loading
Personal Weather Stations






























Interactive Weather Map
Tropical Storm Tracking
New forecast layout! Learn more

10-Day Weather Forecast

Advertisements
Track Severe Weather on mobile